Time;durP1;ratioP1;P1;durP2;ratioP2;P2;SDS_P1;SDS_P2;PMS_P1;PMS_P2;Temp;Humidity;BMP_temperature;BMP_pressure;BME280_temperature;BME280_humidity;BME280_pressure;Samples;Min_cycle;Max_cycle;Signal;HPM_P1;HPM_P2
2022/08/03 00:01:03;;;;;;;;;;;;;;;24.26;32.88;100595.16;5016108;28;20364;-83
2022/08/03 00:03:28;;;;;;;;;;;;;;;24.25;32.46;100587.25;5015713;28;20344;-83
2022/08/03 00:05:54;;;;;;;;;;;;;;;24.25;33.28;100590.81;5015437;28;19922;-83
2022/08/03 00:08:19;;;;;;;;;;;;;;;24.25;32.18;100593.53;5015659;28;19929;-83
2022/08/03 00:10:44;;;;;;;;;;;;;;;24.25;32.30;100589.97;5015843;28;20001;-83
2022/08/03 00:13:11;;;;;;;;;;;;;;;24.25;32.87;100587.25;5015245;28;19921;-83
2022/08/03 00:15:37;;;;;;;;;;;;;;;24.25;32.75;100593.53;5017040;28;19987;-83
2022/08/03 00:18:02;;;;;;;;;;;;;;;24.25;32.80;100596.28;5017123;28;19918;-83
2022/08/03 00:20:27;;;;;;;;;;;;;;;24.25;32.72;100587.25;5016620;28;20039;-83
2022/08/03 00:22:53;;;;;;;;;;;;;;;24.25;32.31;100589.97;5017053;28;19918;-83
2022/08/03 00:25:18;;;;;;;;;;;;;;;24.24;32.40;100580.97;5017007;28;19917;-83
2022/08/03 00:27:43;;;;;;;;;;;;;;;24.25;32.24;100587.25;5016664;28;19944;-83
2022/08/03 00:30:09;;;;;;;;;;;;;;;24.24;31.94;100591.88;5017005;28;19945;-83
2022/08/03 00:32:34;;;;;;;;;;;;;;;24.18;31.78;100582.88;5014866;28;19971;-83
2022/08/03 00:34:59;;;;;;;;;;;;;;;24.23;32.06;100590.25;5016598;28;19917;-83
2022/08/03 00:37:26;;;;;;;;;;;;;;;24.23;32.40;100586.69;5017006;28;20405;-83
2022/08/03 00:39:51;;;;;;;;;;;;;;;24.24;31.37;100585.63;5017452;28;19918;-83
2022/08/03 00:42:16;;;;;;;;;;;;;;;24.23;31.41;100589.44;5022699;28;19968;-83
2022/08/03 00:44:42;;;;;;;;;;;;;;;24.21;31.70;100586.97;5031891;28;20429;-83
2022/08/03 00:47:09;;;;;;;;;;;;;;;24.22;31.67;100587.81;5060978;28;19923;-83
2022/08/03 00:49:34;;;;;;;;;;;;;;;24.22;31.86;100588.63;5060334;28;19921;-83
2022/08/03 00:51:59;;;;;;;;;;;;;;;24.21;31.47;100581.50;5060624;28;19940;-83
2022/08/03 00:54:25;;;;;;;;;;;;;;;24.22;31.81;100593.28;5045164;28;19970;-83
2022/08/03 00:56:50;;;;;;;;;;;;;;;24.21;31.42;100597.91;5061383;28;19924;-83
2022/08/03 00:59:15;;;;;;;;;;;;;;;24.21;31.33;100597.91;5059616;28;19917;-83
2022/08/03 01:01:40;;;;;;;;;;;;;;;24.20;31.14;100596.28;5051658;28;19952;-83
2022/08/03 01:04:06;;;;;;;;;;;;;;;24.19;31.38;100587.25;5051797;28;19925;-83
2022/08/03 01:06:33;;;;;;;;;;;;;;;24.21;31.64;100591.63;5051105;28;19928;-83
2022/08/03 01:09:02;;;;;;;;;;;;;;;24.19;31.44;100595.44;5051270;28;19967;-83
2022/08/03 01:11:27;;;;;;;;;;;;;;;24.21;31.59;100600.63;5051546;28;20402;-83
2022/08/03 01:13:53;;;;;;;;;;;;;;;24.21;31.07;100605.28;5036045;28;20012;-83
2022/08/03 01:16:22;;;;;;;;;;;;;;;24.19;31.19;100600.09;5036258;28;19971;-83
2022/08/03 01:18:51;;;;;;;;;;;;;;;24.18;31.19;100602.00;5051561;28;19924;-83
2022/08/03 01:21:30;;;;;;;;;;;;;;;24.18;31.11;100604.72;5036356;28;19929;-83
2022/08/03 01:24:06;;;;;;;;;;;;;;;24.18;31.55;100599.28;5062738;28;20302;-83
2022/08/03 01:26:44;;;;;;;;;;;;;;;24.18;30.86;100603.91;5068747;28;19924;-83
2022/08/03 01:29:29;;;;;;;;;;;;;;;24.17;30.79;100597.63;5047812;28;19924;-83
2022/08/03 01:31:57;;;;;;;;;;;;;;;24.17;30.80;100600.34;5031966;28;19921;-83
2022/08/03 01:34:22;;;;;;;;;;;;;;;24.17;30.61;100596.81;5051192;28;19967;-83
2022/08/03 01:36:49;;;;;;;;;;;;;;;24.17;30.53;100597.63;5051275;28;19920;-83
2022/08/03 01:39:14;;;;;;;;;;;;;;;24.17;30.48;100591.34;5051259;28;19921;-83
2022/08/03 01:41:59;;;;;;;;;;;;;;;24.16;30.30;100590.53;5037867;28;19925;-83
2022/08/03 01:44:28;;;;;;;;;;;;;;;24.15;30.20;100588.91;5048562;28;19925;-83
2022/08/03 01:46:54;;;;;;;;;;;;;;;24.16;30.83;100586.97;5016274;28;20012;-83
2022/08/03 01:49:20;;;;;;;;;;;;;;;24.17;30.40;100585.88;5020246;28;19949;-83
2022/08/03 01:51:46;;;;;;;;;;;;;;;24.16;30.33;100584.25;5019094;28;20386;-83
2022/08/03 01:54:11;;;;;;;;;;;;;;;24.16;30.41;100587.81;5021280;28;19937;-83
2022/08/03 01:56:36;;;;;;;;;;;;;;;24.16;30.40;100590.53;5022910;28;19924;-83
2022/08/03 01:59:02;;;;;;;;;;;;;;;24.15;30.46;100583.44;5021956;28;20020;-83
2022/08/03 02:01:27;;;;;;;;;;;;;;;24.14;30.51;100587.25;5025102;28;19981;-83
2022/08/03 02:03:52;;;;;;;;;;;;;;;24.16;30.24;100584.25;5033530;28;19921;-83
2022/08/03 02:06:17;;;;;;;;;;;;;;;24.13;29.99;100574.69;5037809;28;19909;-83
2022/08/03 02:08:43;;;;;;;;;;;;;;;24.15;29.81;100582.63;5038375;28;19909;-83
2022/08/03 02:11:09;;;;;;;;;;;;;;;24.14;30.39;100581.78;5038411;28;19940;-83
2022/08/03 02:13:34;;;;;;;;;;;;;;;24.14;29.93;100583.69;5038133;28;19920;-83
2022/08/03 02:16:02;;;;;;;;;;;;;;;24.12;29.65;100575.78;5038267;28;19910;-83
2022/08/03 02:18:28;;;;;;;;;;;;;;;24.09;29.70;100576.31;5038160;28;19932;-83
2022/08/03 02:20:53;;;;;;;;;;;;;;;24.08;29.43;100571.97;5038217;28;19929;-83
2022/08/03 02:23:18;;;;;;;;;;;;;;;24.08;29.28;100576.63;5038348;28;19980;-83
2022/08/03 02:25:45;;;;;;;;;;;;;;;24.10;29.26;100567.06;5038241;28;19918;-83
2022/08/03 02:28:11;;;;;;;;;;;;;;;24.09;29.11;100575.50;5038291;28;19920;-83
2022/08/03 02:30:40;;;;;;;;;;;;;;;24.09;29.16;100581.78;5038808;28;19973;-83
2022/08/03 02:33:10;;;;;;;;;;;;;;;24.08;29.01;100577.44;5038206;28;19925;-83
2022/08/03 02:35:35;;;;;;;;;;;;;;;24.09;28.92;100584.50;5038175;28;19973;-83
2022/08/03 02:38:01;;;;;;;;;;;;;;;24.07;29.31;100588.63;5038680;28;19913;-83
2022/08/03 02:40:27;;;;;;;;;;;;;;;24.07;29.42;100583.97;5038004;28;19923;-83
2022/08/03 02:42:53;;;;;;;;;;;;;;;24.07;29.19;100585.91;5030945;28;19921;-83
2022/08/03 02:45:18;;;;;;;;;;;;;;;24.07;29.17;100592.16;5021521;28;19918;-83
2022/08/03 02:47:44;;;;;;;;;;;;;;;24.08;29.19;100598.47;5015456;28;19922;-83
2022/08/03 02:50:10;;;;;;;;;;;;;;;24.09;28.95;100594.63;5014070;28;19921;-83
2022/08/03 02:52:36;;;;;;;;;;;;;;;24.13;29.30;100603.94;5015007;28;19917;-83
2022/08/03 02:55:01;;;;;;;;;;;;;;;24.15;29.46;100608.00;5013908;28;19921;-83
2022/08/03 02:57:26;;;;;;;;;;;;;;;24.18;29.29;100614.81;5016304;28;19917;-83
2022/08/03 02:59:52;;;;;;;;;;;;;;;24.19;29.24;100613.75;5017616;28;19918;-83
2022/08/03 03:02:17;;;;;;;;;;;;;;;24.22;29.43;100620.56;5018599;28;19917;-83
2022/08/03 03:04:43;;;;;;;;;;;;;;;24.23;29.59;100616.75;5017252;28;20288;-83
2022/08/03 03:07:09;;;;;;;;;;;;;;;24.24;29.67;100626.59;5018340;28;20012;-83
2022/08/03 03:09:35;;;;;;;;;;;;;;;24.28;29.73;100630.38;5017200;28;20291;-83
2022/08/03 03:12:00;;;;;;;;;;;;;;;24.29;29.46;100627.38;5018196;28;20360;-83
2022/08/03 03:14:25;;;;;;;;;;;;;;;24.30;29.88;100633.66;5016945;28;19925;-83
2022/08/03 03:16:50;;;;;;;;;;;;;;;24.32;29.75;100626.03;5018001;28;19918;-83
2022/08/03 03:19:16;;;;;;;;;;;;;;;24.34;29.83;100640.25;5016810;28;19929;-83
2022/08/03 03:21:42;;;;;;;;;;;;;;;24.35;29.40;100628.19;5016595;28;19917;-83
2022/08/03 03:24:07;;;;;;;;;;;;;;;24.37;29.83;100636.97;5016631;28;19972;-84
2022/08/03 03:26:32;;;;;;;;;;;;;;;24.38;29.71;100639.41;5016683;28;20012;-84
2022/08/03 03:28:57;;;;;;;;;;;;;;;24.39;29.56;100632.03;5016816;28;19918;-84
2022/08/03 03:31:23;;;;;;;;;;;;;;;24.40;29.67;100630.94;5016592;28;20356;-84
2022/08/03 03:33:48;;;;;;;;;;;;;;;24.43;28.87;100643.22;5016949;28;19952;-83
2022/08/03 03:36:13;;;;;;;;;;;;;;;24.43;29.41;100654.97;5018030;28;20359;-83
2022/08/03 03:38:39;;;;;;;;;;;;;;;24.42;29.58;100657.97;5017781;28;19918;-83
2022/08/03 03:41:04;;;;;;;;;;;;;;;24.45;29.63;100655.50;5018422;28;20379;-83
2022/08/03 03:43:29;;;;;;;;;;;;;;;24.40;29.55;100660.97;5019320;28;20283;-84
2022/08/03 03:45:55;;;;;;;;;;;;;;;24.46;29.58;100661.81;5035269;28;20283;-84
2022/08/03 03:48:21;;;;;;;;;;;;;;;24.44;29.59;100667.56;5054432;28;19925;-83
2022/08/03 03:50:46;;;;;;;;;;;;;;;24.43;29.70;100663.16;5052706;28;19925;-83
2022/08/03 03:53:12;;;;;;;;;;;;;;;24.41;29.72;100657.16;5052755;28;20000;-83
2022/08/03 03:55:37;;;;;;;;;;;;;;;24.42;29.62;100658.78;5037110;28;20286;-83
2022/08/03 03:58:03;;;;;;;;;;;;;;;24.42;29.58;100660.69;5052425;28;20015;-83
2022/08/03 04:00:28;;;;;;;;;;;;;;;24.44;29.53;100656.63;5052612;28;19924;-83
2022/08/03 04:02:53;;;;;;;;;;;;;;;24.37;29.83;100658.81;5052736;28;19970;-83
2022/08/03 04:11:09;;;;;;;;;;;;;;;24.44;29.95;100663.97;5063873;28;20346;-83
2022/08/03 04:13:37;;;;;;;;;;;;;;;24.40;30.04;100666.44;5017096;28;19921;-83
2022/08/03 04:16:03;;;;;;;;;;;;;;;24.45;30.01;100668.34;4999018;28;19917;-83
2022/08/03 04:18:29;;;;;;;;;;;;;;;24.48;29.91;100673.28;4998361;28;19971;-83
2022/08/03 04:20:54;;;;;;;;;;;;;;;24.39;30.24;100664.81;5015018;28;19921;-82
2022/08/03 04:23:20;;;;;;;;;;;;;;;24.40;30.17;100671.91;4998368;28;20063;-83
2022/08/03 04:25:45;;;;;;;;;;;;;;;24.49;30.27;100678.47;4998797;28;19925;-83
2022/08/03 04:28:10;;;;;;;;;;;;;;;24.41;30.43;100678.22;5015078;28;19917;-84
2022/08/03 04:30:36;;;;;;;;;;;;;;;24.44;30.71;100680.38;4998788;28;20360;-84
2022/08/03 04:33:01;;;;;;;;;;;;;;;24.48;30.87;100682.28;5014633;28;20382;-83
2022/08/03 04:35:28;;;;;;;;;;;;;;;24.46;30.70;100687.22;5014580;28;19925;-83
2022/08/03 04:37:53;;;;;;;;;;;;;;;24.48;31.08;100690.47;4998140;28;19937;-83
2022/08/03 04:40:20;;;;;;;;;;;;;;;24.43;31.18;100681.47;5014599;28;19924;-83
2022/08/03 04:42:45;;;;;;;;;;;;;;;24.43;31.25;100678.75;4998104;28;19927;-83
2022/08/03 04:45:10;;;;;;;;;;;;;;;24.44;31.52;100683.94;4992938;28;19997;-83
2022/08/03 04:47:36;;;;;;;;;;;;;;;24.46;31.44;100687.22;4978657;28;19917;-83
2022/08/03 04:50:01;;;;;;;;;;;;;;;24.48;31.44;100689.66;4980703;28;20376;-83
2022/08/03 04:52:26;;;;;;;;;;;;;;;24.50;31.48;100696.50;4996992;28;19925;-83
2022/08/03 04:54:52;;;;;;;;;;;;;;;24.54;31.53;100703.09;4997075;28;20301;-83
2022/08/03 04:57:18;;;;;;;;;;;;;;;24.60;31.64;100697.63;5012326;28;20056;-83
2022/08/03 04:59:43;;;;;;;;;;;;;;;24.48;31.49;100701.41;5011427;28;19918;-84
2022/08/03 05:02:09;;;;;;;;;;;;;;;24.48;31.56;100690.47;5011877;28;19933;-83
2022/08/03 05:04:34;;;;;;;;;;;;;;;24.50;31.61;100688.28;5011940;28;19982;-83
2022/08/03 05:06:59;;;;;;;;;;;;;;;24.55;31.61;100692.97;4996356;28;20024;-83
2022/08/03 05:09:24;;;;;;;;;;;;;;;24.57;31.71;100692.69;5011990;28;19918;-83
2022/08/03 05:11:50;;;;;;;;;;;;;;;24.55;31.99;100691.06;4996672;28;19964;-83
2022/08/03 05:14:15;;;;;;;;;;;;;;;24.57;32.05;100692.69;4996817;28;19949;-83
2022/08/03 05:16:41;;;;;;;;;;;;;;;24.59;32.04;100685.84;5011577;28;20390;-83
2022/08/03 05:19:06;;;;;;;;;;;;;;;24.56;32.04;100680.97;5014889;28;19924;-82
2022/08/03 05:21:31;;;;;;;;;;;;;;;24.52;32.27;100677.09;4997060;28;19925;-82
2022/08/03 05:23:56;;;;;;;;;;;;;;;24.48;32.48;100685.03;5010803;28;19925;-84
2022/08/03 05:26:22;;;;;;;;;;;;;;;24.54;32.27;100678.50;4996788;28;19956;-82
2022/08/03 05:28:47;;;;;;;;;;;;;;;24.49;32.57;100681.22;4996117;28;20271;-81
2022/08/03 05:31:12;;;;;;;;;;;;;;;24.50;33.00;100682.81;5011230;28;19918;-83
2022/08/03 05:33:38;;;;;;;;;;;;;;;24.44;33.16;100683.94;5011365;28;19925;-83
2022/08/03 05:36:04;;;;;;;;;;;;;;;24.50;32.78;100682.81;5011805;28;19957;-83
2022/08/03 05:38:30;;;;;;;;;;;;;;;24.49;33.05;100681.22;5010718;28;20335;-83
2022/08/03 05:40:56;;;;;;;;;;;;;;;24.49;33.32;100678.47;4996477;28;19952;-81
2022/08/03 05:43:21;;;;;;;;;;;;;;;24.55;32.82;100682.84;5011823;28;19917;-83
2022/08/03 05:45:46;;;;;;;;;;;;;;;24.78;32.70;100683.38;5028414;28;19917;-83
2022/08/03 05:48:12;;;;;;;;;;;;;;;24.67;32.67;100679.03;5050322;28;19978;-84
2022/08/03 05:50:37;;;;;;;;;;;;;;;24.56;32.82;100661.84;5034700;28;19985;-84
2022/08/03 05:53:03;;;;;;;;;;;;;;;24.66;32.89;100674.66;5035136;28;19917;-85
2022/08/03 05:55:28;;;;;;;;;;;;;;;24.77;32.73;100665.34;5035565;28;20010;-84
2022/08/03 05:57:53;;;;;;;;;;;;;;;24.65;33.14;100662.09;5035853;28;19920;-84
2022/08/03 06:00:19;;;;;;;;;;;;;;;24.75;32.87;100662.09;5035291;28;20379;-84
2022/08/03 06:02:44;;;;;;;;;;;;;;;24.87;32.38;100664.50;5034937;28;20374;-83
2022/08/03 06:05:09;;;;;;;;;;;;;;;24.91;32.18;100669.16;5034943;28;19917;-83
2022/08/03 06:07:35;;;;;;;;;;;;;;;24.99;32.31;100658.75;5035135;28;20382;-83
2022/08/03 06:10:03;;;;;;;;;;;;;;;24.98;32.16;100659.84;5050298;28;20000;-82
2022/08/03 06:12:28;;;;;;;;;;;;;;;25.02;32.10;100660.91;5035949;28;20417;-83
2022/08/03 06:14:54;;;;;;;;;;;;;;;24.91;32.38;100666.41;5050064;28;19921;-82
2022/08/03 06:17:19;;;;;;;;;;;;;;;24.99;32.22;100672.41;5035282;28;19954;-83
2022/08/03 06:19:44;;;;;;;;;;;;;;;25.05;32.12;100666.66;5050766;28;20406;-83
2022/08/03 06:22:09;;;;;;;;;;;;;;;25.10;31.91;100668.56;5035198;28;19940;-84
2022/08/03 06:24:35;;;;;;;;;;;;;;;25.00;32.13;100674.06;5035054;28;19917;-83
2022/08/03 06:27:00;;;;;;;;;;;;;;;24.96;32.25;100667.47;5034425;28;20322;-83
2022/08/03 06:29:25;;;;;;;;;;;;;;;25.14;31.96;100677.03;5034743;28;19999;-83
2022/08/03 06:31:50;;;;;;;;;;;;;;;25.14;31.63;100677.84;5037596;28;19923;-83
2022/08/03 06:34:16;;;;;;;;;;;;;;;25.20;31.48;100681.38;5037126;28;20319;-84
2022/08/03 06:36:41;;;;;;;;;;;;;;;25.24;31.64;100679.72;5038604;28;19921;-83
2022/08/03 06:39:06;;;;;;;;;;;;;;;25.23;31.42;100684.38;5038651;28;19923;-83
2022/08/03 06:41:31;;;;;;;;;;;;;;;25.19;31.60;100680.56;5039370;28;20003;-84
2022/08/03 06:43:57;;;;;;;;;;;;;;;25.16;31.68;100672.91;5054405;28;20276;-84
2022/08/03 06:46:22;;;;;;;;;;;;;;;25.12;31.31;100682.78;5042053;28;20008;-83
2022/08/03 06:48:47;;;;;;;;;;;;;;;25.10;31.70;100668.56;5017626;28;20009;-84
2022/08/03 06:51:12;;;;;;;;;;;;;;;25.12;31.30;100671.81;5020543;28;19925;-84
2022/08/03 06:53:38;;;;;;;;;;;;;;;25.22;31.34;100677.25;5023287;28;20372;-83
2022/08/03 06:56:03;;;;;;;;;;;;;;;25.23;30.86;100678.91;5018618;28;19959;-84
2022/08/03 06:58:29;;;;;;;;;;;;;;;25.28;30.92;100676.19;5018303;28;20001;-84
2022/08/03 07:00:54;;;;;;;;;;;;;;;25.18;30.98;100678.94;5019094;28;19928;-84
2022/08/03 07:03:19;;;;;;;;;;;;;;;25.26;30.73;100681.09;5018761;28;19918;-82
2022/08/03 07:05:46;;;;;;;;;;;;;;;25.28;30.58;100681.66;5017202;28;19917;-84
2022/08/03 07:08:11;;;;;;;;;;;;;;;25.24;30.71;100679.72;5019000;28;19937;-84
2022/08/03 07:10:36;;;;;;;;;;;;;;;25.24;30.40;100674.25;5017843;28;19924;-84
2022/08/03 07:13:02;;;;;;;;;;;;;;;25.15;30.41;100675.91;5018255;28;19996;-84
2022/08/03 07:15:27;;;;;;;;;;;;;;;25.07;30.76;100666.38;5017169;28;19956;-84
2022/08/03 07:17:52;;;;;;;;;;;;;;;25.14;30.74;100666.91;5018225;28;19924;-84
2022/08/03 07:20:18;;;;;;;;;;;;;;;25.13;30.48;100668.00;5018303;28;19918;-84
2022/08/03 07:22:43;;;;;;;;;;;;;;;25.13;30.55;100657.06;5018482;28;20391;-84
2022/08/03 07:25:09;;;;;;;;;;;;;;;25.22;30.50;100663.59;5016986;28;20372;-84
2022/08/03 07:27:34;;;;;;;;;;;;;;;25.09;30.61;100661.44;5018698;28;19927;-83
2022/08/03 07:29:59;;;;;;;;;;;;;;;25.20;30.59;100662.22;5018052;28;20356;-83
2022/08/03 07:32:25;;;;;;;;;;;;;;;25.19;30.40;100663.34;5018383;28;19917;-83
2022/08/03 07:34:50;;;;;;;;;;;;;;;25.11;30.69;100659.25;5017707;28;19972;-85
2022/08/03 07:37:15;;;;;;;;;;;;;;;25.24;30.39;100668.78;5017726;28;20003;-84
2022/08/03 07:39:40;;;;;;;;;;;;;;;25.08;30.32;100660.63;5018228;28;19924;-84
2022/08/03 07:42:07;;;;;;;;;;;;;;;25.08;30.26;100665.28;5017322;28;19918;-83
2022/08/03 07:44:32;;;;;;;;;;;;;;;25.10;30.03;100668.56;5017097;28;19917;-84
2022/08/03 07:46:57;;;;;;;;;;;;;;;25.14;30.20;100664.16;5033275;28;19924;-84
2022/08/03 07:49:23;;;;;;;;;;;;;;;25.09;30.21;100661.44;5052869;28;19984;-83
2022/08/03 07:52:46;;;;;;;;;;;;;;;25.29;30.01;100661.41;5037706;28;20363;-83
2022/08/03 07:54:33;;;;;;;;;;;;;;;25.20;29.79;100670.44;5037758;28;19917;-84
2022/08/03 07:56:58;;;;;;;;;;;;;;;25.22;29.98;100666.31;5038423;28;19923;-83
2022/08/03 07:59:24;;;;;;;;;;;;;;;25.21;30.04;100670.16;5053188;28;20000;-84
2022/08/03 08:01:51;;;;;;;;;;;;;;;25.17;29.92;100660.88;5037394;28;20350;-84
2022/08/03 08:04:17;;;;;;;;;;;;;;;25.33;29.86;100669.88;5037323;28;19993;-84
2022/08/03 08:06:42;;;;;;;;;;;;;;;25.18;29.54;100676.19;5037266;28;20398;-84
2022/08/03 08:09:07;;;;;;;;;;;;;;;25.22;29.51;100671.78;5036946;28;19917;-83
2022/08/03 08:11:32;;;;;;;;;;;;;;;25.23;29.50;100672.59;5037166;28;19918;-84
2022/08/03 08:14:01;;;;;;;;;;;;;;;25.21;29.33;100675.63;5053438;28;20347;-82
2022/08/03 08:16:26;;;;;;;;;;;;;;;25.23;29.31;100681.66;5037243;28;19917;-82
2022/08/03 08:18:51;;;;;;;;;;;;;;;25.33;29.07;100678.06;5036952;28;20377;-81
2022/08/03 08:21:17;;;;;;;;;;;;;;;25.33;28.96;100672.59;5036607;28;19921;-82
2022/08/03 08:23:42;;;;;;;;;;;;;;;25.23;28.86;100670.72;5043675;28;19936;-82
2022/08/03 08:26:07;;;;;;;;;;;;;;;25.24;28.85;100669.59;5036812;28;20355;-82
2022/08/03 08:28:33;;;;;;;;;;;;;;;25.34;28.69;100678.91;5041300;28;20016;-83
2022/08/03 08:30:58;;;;;;;;;;;;;;;25.28;28.77;100681.66;5043096;28;19924;-82
2022/08/03 08:33:23;;;;;;;;;;;;;;;25.28;28.97;100676.19;5037550;28;19952;-82
2022/08/03 08:35:48;;;;;;;;;;;;;;;25.24;28.85;100680.53;5036883;28;19921;-81
2022/08/03 08:38:14;;;;;;;;;;;;;;;25.18;28.83;100681.66;5037166;28;20462;-82
2022/08/03 08:40:39;;;;;;;;;;;;;;;25.36;28.79;100682.19;5036192;28;19942;-82
2022/08/03 08:43:04;;;;;;;;;;;;;;;25.22;29.01;100666.31;5052005;28;19921;-82
2022/08/03 08:45:29;;;;;;;;;;;;;;;25.28;28.74;100681.66;5033994;28;20294;-81
2022/08/03 08:47:55;;;;;;;;;;;;;;;25.24;29.18;100668.78;5016177;28;19949;-83
2022/08/03 08:50:20;;;;;;;;;;;;;;;25.15;29.06;100670.44;5017386;28;19924;-83
2022/08/03 08:52:47;;;;;;;;;;;;;;;25.16;29.12;100669.34;5018430;28;19917;-83
2022/08/03 08:55:13;;;;;;;;;;;;;;;25.15;29.22;100671.28;5017226;28;19917;-82
2022/08/03 08:57:43;;;;;;;;;;;;;;;25.17;29.35;100679.22;5017367;28;19928;-82
2022/08/03 09:00:09;;;;;;;;;;;;;;;25.11;29.72;100667.44;5018112;28;19923;-82
2022/08/03 09:02:35;;;;;;;;;;;;;;;25.15;29.79;100671.28;5017209;28;19922;-82
2022/08/03 09:05:00;;;;;;;;;;;;;;;25.16;29.73;100672.91;5017744;28;19980;-81
2022/08/03 09:07:26;;;;;;;;;;;;;;;25.24;29.46;100668.78;5018367;28;20430;-81
2022/08/03 09:09:51;;;;;;;;;;;;;;;25.23;29.69;100667.13;5018216;28;19924;-82
2022/08/03 09:12:17;;;;;;;;;;;;;;;25.20;29.71;100667.69;5016063;28;19917;-82
2022/08/03 09:14:42;;;;;;;;;;;;;;;25.22;29.72;100671.78;5017553;28;20008;-82
2022/08/03 09:17:08;;;;;;;;;;;;;;;25.17;29.90;100663.59;5018157;28;20360;-84
2022/08/03 09:19:33;;;;;;;;;;;;;;;25.19;29.69;100655.94;5018361;28;19918;-82
2022/08/03 09:22:11;;;;;;;;;;;;;;;25.22;29.91;100660.03;5017344;28;19977;-83
2022/08/03 09:24:37;;;;;;;;;;;;;;;25.22;29.93;100666.31;5016953;28;19924;-83
2022/08/03 09:27:04;;;;;;;;;;;;;;;25.12;30.10;100667.16;5017297;28;19918;-84
2022/08/03 09:29:32;;;;;;;;;;;;;;;25.19;29.76;100661.41;5024065;28;19917;-83
2022/08/03 09:32:01;;;;;;;;;;;;;;;25.25;29.96;100663.06;5025929;28;19917;-83
2022/08/03 09:34:27;;;;;;;;;;;;;;;25.29;29.91;100666.88;5016309;28;19928;-84
2022/08/03 09:36:53;;;;;;;;;;;;;;;25.26;30.11;100656.47;5016703;28;19918;-84
2022/08/03 09:39:21;;;;;;;;;;;;;;;25.22;30.19;100658.13;5015823;28;19918;-84
2022/08/03 09:41:48;;;;;;;;;;;;;;;25.23;30.25;100656.19;5017593;28;20323;-84
2022/08/03 09:44:13;;;;;;;;;;;;;;;25.23;30.16;100658.94;5016615;28;19996;-84
2022/08/03 09:46:52;;;;;;;;;;;;;;;25.25;30.38;100649.41;5025468;28;20386;-84
2022/08/03 09:49:17;;;;;;;;;;;;;;;25.20;30.51;100657.59;5050946;28;19921;-84
2022/08/03 09:51:42;;;;;;;;;;;;;;;25.20;30.55;100657.59;5033726;28;20267;-84
2022/08/03 09:54:08;;;;;;;;;;;;;;;25.31;30.66;100652.91;5051288;28;20259;-83
2022/08/03 09:56:37;;;;;;;;;;;;;;;25.26;30.88;100666.63;5052152;28;19917;-83
2022/08/03 09:59:03;;;;;;;;;;;;;;;25.25;30.88;100654.88;5052510;28;20078;-83
2022/08/03 10:01:31;;;;;;;;;;;;;;;25.28;31.07;100665.25;5052796;28;20386;-84
2022/08/03 10:03:57;;;;;;;;;;;;;;;25.33;30.95;100655.38;5036987;28;20003;-83
2022/08/03 10:06:22;;;;;;;;;;;;;;;25.37;31.18;100662.75;5050488;28;20398;-84
2022/08/03 10:09:06;;;;;;;;;;;;;;;25.30;31.43;100668.53;5050515;28;20077;-84
2022/08/03 10:11:33;;;;;;;;;;;;;;;25.36;31.56;100661.09;5035702;28;19917;-84
2022/08/03 10:13:59;;;;;;;;;;;;;;;25.43;31.52;100663.53;5050834;28;19923;-84
2022/08/03 10:16:24;;;;;;;;;;;;;;;25.46;31.65;100665.72;5050524;28;20337;-84
2022/08/03 10:18:49;;;;;;;;;;;;;;;25.46;31.59;100666.53;5050822;28;20004;-83
2022/08/03 10:21:15;;;;;;;;;;;;;;;25.46;31.82;100660.25;5035249;28;20314;-84
2022/08/03 10:23:40;;;;;;;;;;;;;;;25.45;32.28;100669.53;5050476;28;19924;-84
2022/08/03 10:26:06;;;;;;;;;;;;;;;25.43;32.18;100666.28;5051016;28;19917;-83
2022/08/03 10:28:35;;;;;;;;;;;;;;;25.42;32.50;100667.38;5051226;28;20003;-81
2022/08/03 10:31:00;;;;;;;;;;;;;;;25.40;32.38;100664.09;5036076;28;20276;-82
2022/08/03 10:33:29;;;;;;;;;;;;;;;25.42;32.37;100667.38;5051297;28;19917;-82
2022/08/03 10:35:55;;;;;;;;;;;;;;;25.37;32.68;100670.13;5036142;28;20054;-83
2022/08/03 10:38:22;;;;;;;;;;;;;;;25.23;32.63;100665.25;5051183;28;19921;-81
2022/08/03 10:40:49;;;;;;;;;;;;;;;25.28;32.63;100662.53;5050470;28;19939;-82
2022/08/03 10:43:37;;;;;;;;;;;;;;;25.10;33.06;100663.91;5050625;28;20059;-82
2022/08/03 10:46:03;;;;;;;;;;;;;;;25.23;32.78;100657.03;5008681;28;19918;-81
2022/08/03 10:48:28;;;;;;;;;;;;;;;25.24;33.06;100658.66;4978476;28;20016;-81
2022/08/03 10:50:53;;;;;;;;;;;;;;;25.19;33.07;100672.34;4978966;28;19918;-81
2022/08/03 10:53:35;;;;;;;;;;;;;;;25.17;33.41;100663.59;4978554;28;19918;-81
2022/08/03 10:58:44;;;;;;;;;;;;;;;25.18;33.46;100665.25;4993947;28;19925;-81
2022/08/03 11:01:10;;;;;;;;;;;;;;;25.16;33.55;100661.16;4994587;28;19918;-81
2022/08/03 11:03:53;;;;;;;;;;;;;;;25.12;33.63;100658.16;4977847;28;20237;-82
2022/08/03 11:06:19;;;;;;;;;;;;;;;25.07;33.72;100661.72;4993021;28;20021;-81
2022/08/03 11:08:44;;;;;;;;;;;;;;;25.16;33.44;100661.97;4993380;28;19941;-81
2022/08/03 11:11:16;;;;;;;;;;;;;;;25.05;33.89;100666.66;4977801;28;20345;-81
2022/08/03 11:13:55;;;;;;;;;;;;;;;25.10;34.06;100658.44;4993645;28;19921;-82
2022/08/03 11:16:22;;;;;;;;;;;;;;;25.10;34.04;100657.63;4993714;28;19930;-82
2022/08/03 11:18:57;;;;;;;;;;;;;;;25.15;33.94;100660.34;4996172;28;20004;-82
2022/08/03 11:21:42;;;;;;;;;;;;;;;25.24;33.78;100646.91;4998241;28;19918;-82
2022/08/03 11:24:07;;;;;;;;;;;;;;;25.20;33.81;100652.13;4999527;28;20009;-82
2022/08/03 11:26:33;;;;;;;;;;;;;;;25.21;34.08;100650.19;4999274;28;19964;-82
2022/08/03 11:29:25;;;;;;;;;;;;;;;25.29;33.98;100661.41;5014051;28;19925;-82
2022/08/03 11:31:51;;;;;;;;;;;;;;;25.42;33.79;100653.69;4999606;28;19949;-82
2022/08/03 11:34:16;;;;;;;;;;;;;;;25.45;33.71;100658.59;5013459;28;20372;-81
2022/08/03 11:37:00;;;;;;;;;;;;;;;25.51;33.74;100660.22;4999493;28;19944;-80
2022/08/03 11:39:39;;;;;;;;;;;;;;;25.48;34.11;100660.78;4999667;28;19918;-80
2022/08/03 11:42:23;;;;;;;;;;;;;;;25.52;33.87;100653.63;5014957;28;20404;-81
2022/08/03 11:44:48;;;;;;;;;;;;;;;25.51;34.01;100649.28;4999164;28;19976;-81
2022/08/03 11:47:16;;;;;;;;;;;;;;;25.53;33.86;100659.94;5027808;28;19917;-82
2022/08/03 11:49:42;;;;;;;;;;;;;;;25.57;34.14;100659.09;5053931;28;19924;-82
2022/08/03 11:52:08;;;;;;;;;;;;;;;25.45;34.32;100662.16;5054205;28;19917;-82
2022/08/03 11:54:33;;;;;;;;;;;;;;;25.11;34.42;100659.25;5052184;28;20275;-81
2022/08/03 11:56:58;;;;;;;;;;;;;;;25.22;34.63;100657.31;5037702;28;19917;-81
2022/08/03 11:59:33;;;;;;;;;;;;;;;25.43;34.42;100661.63;5037964;28;20109;-79
2022/08/03 12:02:05;;;;;;;;;;;;;;;25.36;34.42;100660.28;5039983;28;19924;-81
2022/08/03 12:04:30;;;;;;;;;;;;;;;25.47;34.15;100656.41;5050220;28;19927;-81
2022/08/03 12:06:59;;;;;;;;;;;;;;;25.52;33.78;100664.59;5041208;28;20340;-81
2022/08/03 12:09:24;;;;;;;;;;;;;;;25.50;34.19;100658.59;5039157;28;19970;-82
2022/08/03 12:11:50;;;;;;;;;;;;;;;25.43;34.20;100656.16;5054592;28;19943;-82
2022/08/03 12:14:15;;;;;;;;;;;;;;;25.59;34.15;100654.16;5053635;28;19952;-82
2022/08/03 12:16:41;;;;;;;;;;;;;;;25.63;33.94;100660.72;5054899;28;19917;-82
2022/08/03 12:19:07;;;;;;;;;;;;;;;25.72;33.68;100657.38;5053851;28;20417;-81
2022/08/03 12:21:32;;;;;;;;;;;;;;;25.74;33.65;100657.91;5053919;28;20370;-81
2022/08/03 12:24:01;;;;;;;;;;;;;;;25.75;33.28;100654.06;5054062;28;19917;-82
2022/08/03 12:26:27;;;;;;;;;;;;;;;25.80;33.35;100667.72;5038280;28;19917;-81
2022/08/03 12:28:52;;;;;;;;;;;;;;;25.71;34.00;100661.22;5036304;28;20358;-81
2022/08/03 12:31:18;;;;;;;;;;;;;;;25.71;33.87;100658.47;5037199;28;20003;-80
2022/08/03 12:33:56;;;;;;;;;;;;;;;25.62;33.81;100659.06;5052852;28;20367;-81
2022/08/03 12:36:22;;;;;;;;;;;;;;;25.72;33.60;100673.81;5051943;28;20360;-81
2022/08/03 12:38:53;;;;;;;;;;;;;;;25.61;33.99;100656.59;5051899;28;19921;-81
2022/08/03 12:41:25;;;;;;;;;;;;;;;25.49;34.13;100654.19;5052066;28;20004;-81